createdAt,value
2018-07-14T00:01:51.283Z,60.64
2018-07-14T00:04:20.128Z,60.44
2018-07-14T00:06:47.851Z,60.52
2018-07-14T00:09:16.227Z,60.40
2018-07-14T00:11:43.888Z,60.92
2018-07-14T00:14:11.626Z,60.92
2018-07-14T00:16:39.636Z,61.08
2018-07-14T00:19:07.367Z,60.84
2018-07-14T00:21:35.069Z,60.54
2018-07-14T00:24:03.998Z,60.37
2018-07-14T00:26:31.704Z,60.98
2018-07-14T00:29:00.330Z,60.58
2018-07-14T00:31:29.253Z,61.18
2018-07-14T00:33:56.951Z,61.37
2018-07-14T00:36:24.658Z,61.08
2018-07-14T00:38:53.751Z,61.08
2018-07-14T00:41:21.457Z,61.23
2018-07-14T00:43:49.148Z,60.94
2018-07-14T00:46:17.175Z,61.63
2018-07-14T00:48:45.408Z,61.66
2018-07-14T00:51:13.080Z,61.55
2018-07-14T00:53:42.055Z,61.78
2018-07-14T00:56:09.717Z,61.37
2018-07-14T00:58:37.434Z,61.44
2018-07-14T01:01:06.267Z,61.97
2018-07-14T01:03:35.389Z,61.50
2018-07-14T01:06:03.090Z,61.83
2018-07-14T01:08:31.930Z,61.47
2018-07-14T01:10:59.602Z,61.49
2018-07-14T01:13:27.419Z,61.97
2018-07-14T01:15:55.411Z,61.77
2018-07-14T01:18:24.010Z,61.92
2018-07-14T01:20:51.724Z,62.14
2018-07-14T01:23:19.728Z,61.97
2018-07-14T01:25:47.428Z,62.03
2018-07-14T01:28:15.112Z,62.32
2018-07-14T01:30:42.806Z,62.01
2018-07-14T01:33:10.763Z,62.13
2018-07-14T01:35:38.701Z,62.30
2018-07-14T01:38:06.409Z,62.79
2018-07-14T01:40:34.107Z,62.75
2018-07-14T01:43:01.844Z,63.02
2018-07-14T01:45:29.566Z,62.52
2018-07-14T01:47:57.291Z,63.12
2018-07-14T01:50:25.303Z,63.06
2018-07-14T01:52:53.015Z,63.05
2018-07-14T01:55:20.738Z,62.74
2018-07-14T01:57:48.730Z,62.96
2018-07-14T02:00:16.447Z,62.41
2018-07-14T02:02:45.264Z,62.88
2018-07-14T02:05:13.234Z,63.30
2018-07-14T02:07:40.978Z,63.40
2018-07-14T02:10:08.710Z,63.11
2018-07-14T02:12:36.401Z,63.58
2018-07-14T02:15:04.402Z,63.32
2018-07-14T02:17:32.138Z,63.61
2018-07-14T02:20:00.078Z,63.06
2018-07-14T02:22:27.785Z,63.29
2018-07-14T02:24:55.482Z,63.34
2018-07-14T02:27:23.203Z,63.91
2018-07-14T02:29:51.216Z,63.40
2018-07-14T02:32:18.929Z,63.43
2018-07-14T02:34:46.630Z,63.50
2018-07-14T02:37:15.352Z,63.36
2018-07-14T02:39:43.399Z,64.01
2018-07-14T02:42:11.092Z,63.75
2018-07-14T02:44:38.803Z,63.44
2018-07-14T02:47:06.489Z,63.73
2018-07-14T02:49:34.505Z,63.96
2018-07-14T02:52:03.411Z,63.74
2018-07-14T02:54:33.130Z,63.83
2018-07-14T02:57:00.884Z,63.65
2018-07-14T02:59:28.877Z,64.24
2018-07-14T03:01:56.591Z,63.96
2018-07-14T03:04:24.304Z,64.24
2018-07-14T03:06:52.026Z,64.10
2018-07-14T03:09:20.799Z,64.33
2018-07-14T03:11:48.518Z,63.81
2018-07-14T03:14:16.246Z,64.53
2018-07-14T03:16:44.282Z,64.09
2018-07-14T03:19:11.969Z,64.64
2018-07-14T03:21:39.740Z,64.71
2018-07-14T03:24:07.454Z,64.47
2018-07-14T03:26:35.440Z,64.42
2018-07-14T03:29:03.146Z,64.47
2018-07-14T03:31:30.865Z,65.08
2018-07-14T03:33:58.562Z,65.03
2018-07-14T03:36:26.562Z,65.13
2018-07-14T03:38:54.257Z,64.99
2018-07-14T03:41:21.990Z,64.93
2018-07-14T03:43:49.991Z,64.79
2018-07-14T03:46:17.724Z,65.01
2018-07-14T03:48:45.473Z,64.53
2018-07-14T03:51:13.198Z,64.59
2018-07-14T03:53:41.184Z,65.25
2018-07-14T03:56:08.858Z,65.25
2018-07-14T03:58:36.562Z,64.83
2018-07-14T04:01:05.019Z,64.64
2018-07-14T04:03:32.987Z,64.99
2018-07-14T04:06:00.710Z,65.13
2018-07-14T04:08:28.396Z,65.53
2018-07-14T04:10:56.117Z,65.45
2018-07-14T04:13:24.305Z,65.54
2018-07-14T04:15:52.019Z,65.20
2018-07-14T04:18:19.743Z,65.58
2018-07-14T04:20:48.553Z,65.53
2018-07-14T04:23:16.292Z,65.81
2018-07-14T04:25:44.016Z,65.05
2018-07-14T04:28:12.008Z,65.49
2018-07-14T04:30:39.709Z,65.47
2018-07-14T04:33:07.382Z,65.02
2018-07-14T04:35:35.069Z,65.24
2018-07-14T04:38:03.075Z,65.01
2018-07-14T04:40:30.774Z,65.33
2018-07-14T04:42:58.500Z,65.50
2018-07-14T04:45:26.461Z,64.93
2018-07-14T04:47:54.159Z,65.08
2018-07-14T04:50:21.870Z,65.18
2018-07-14T04:52:49.598Z,65.43
2018-07-14T04:55:17.583Z,65.55
2018-07-14T04:57:45.305Z,64.85
2018-07-14T05:00:13.071Z,64.98
2018-07-14T05:02:40.778Z,65.24
2018-07-14T05:05:09.217Z,64.68
2018-07-14T05:07:36.922Z,64.83
2018-07-14T05:10:04.895Z,65.09
2018-07-14T05:12:33.789Z,64.61
2018-07-14T05:15:01.508Z,65.04
2018-07-14T05:17:29.185Z,65.00
2018-07-14T05:19:57.926Z,64.69
2018-07-14T05:22:25.647Z,64.55
2018-07-14T05:24:53.342Z,64.93
2018-07-14T05:27:21.299Z,64.50
2018-07-14T05:29:49.004Z,64.48
2018-07-14T05:32:16.661Z,64.25
2018-07-14T05:34:44.420Z,64.39
2018-07-14T05:37:12.451Z,64.54
2018-07-14T05:39:40.137Z,64.33
2018-07-14T05:42:07.863Z,64.29
2018-07-14T05:44:35.865Z,64.58
2018-07-14T05:47:03.551Z,64.04
2018-07-14T05:49:31.270Z,63.96
2018-07-14T05:51:59.291Z,63.94
2018-07-14T05:54:27.052Z,64.23
2018-07-14T05:56:56.241Z,64.33
2018-07-14T05:59:24.215Z,64.21
2018-07-14T06:01:51.927Z,64.27
2018-07-14T06:04:19.598Z,64.09
2018-07-14T06:06:47.565Z,63.82
2018-07-14T06:09:16.429Z,64.13
2018-07-14T06:11:44.174Z,64.06
2018-07-14T06:14:11.929Z,63.92
2018-07-14T06:16:39.624Z,63.68
2018-07-14T06:19:07.277Z,63.59
2018-07-14T06:21:35.249Z,63.35
2018-07-14T06:24:02.960Z,62.95
2018-07-14T06:26:30.782Z,63.16
2018-07-14T06:28:58.757Z,63.08
2018-07-14T06:31:26.451Z,62.88
2018-07-14T06:33:55.024Z,62.38
2018-07-14T06:36:23.055Z,62.75
2018-07-14T06:38:50.790Z,62.37
2018-07-14T06:41:18.506Z,62.49
2018-07-14T06:43:46.512Z,61.94
2018-07-14T06:46:14.210Z,62.10
2018-07-14T06:48:41.936Z,62.02
2018-07-14T06:51:09.906Z,61.91
2018-07-14T06:53:51.964Z,61.41
2018-07-14T06:56:27.134Z,61.41
2018-07-14T06:58:54.961Z,61.40
2018-07-14T07:01:24.214Z,61.65
2018-07-14T07:03:52.186Z,61.66
2018-07-14T07:06:20.043Z,61.74
2018-07-14T07:08:47.714Z,61.56
2018-07-14T07:11:15.728Z,61.10
2018-07-14T07:13:43.529Z,61.34
2018-07-14T07:16:11.223Z,60.81
2018-07-14T07:18:39.295Z,61.10
2018-07-14T07:21:06.995Z,60.56
2018-07-14T07:23:34.704Z,60.99
2018-07-14T07:26:02.666Z,60.99
2018-07-14T07:28:30.389Z,60.65
2018-07-14T07:30:58.080Z,60.29
2018-07-14T07:33:26.693Z,60.38
2018-07-14T07:35:54.429Z,60.13
2018-07-14T07:38:22.241Z,60.49
2018-07-14T07:40:51.552Z,60.53
2018-07-14T07:43:20.513Z,60.06
2018-07-14T07:45:48.195Z,60.33
2018-07-14T07:48:17.914Z,60.41
2018-07-14T07:50:45.620Z,59.93
2018-07-14T07:53:13.334Z,59.96
2018-07-14T07:55:41.512Z,59.65
2018-07-14T07:58:09.212Z,59.58
2018-07-14T08:00:38.048Z,59.45
2018-07-14T08:03:07.418Z,59.84
2018-07-14T08:05:35.257Z,59.50
2018-07-14T08:08:02.975Z,59.41
2018-07-14T08:10:31.149Z,59.48
2018-07-14T08:12:59.468Z,59.26
2018-07-14T08:15:27.162Z,59.45
2018-07-14T08:17:55.459Z,59.70
2018-07-14T08:20:24.814Z,59.30
2018-07-14T08:22:52.633Z,59.70
2018-07-14T08:25:20.670Z,59.53
2018-07-14T08:27:48.381Z,59.47
2018-07-14T08:30:16.229Z,58.84
2018-07-14T08:32:45.932Z,59.29
2018-07-14T08:35:16.490Z,58.82
2018-07-14T08:37:44.232Z,58.46
2018-07-14T08:40:12.246Z,58.51
2018-07-14T08:42:40.006Z,58.94
2018-07-14T08:45:07.714Z,58.78
2018-07-14T08:47:37.589Z,58.51
2018-07-14T08:50:07.630Z,58.37
2018-07-14T08:52:35.369Z,58.25
2018-07-14T08:55:04.702Z,58.25
2018-07-14T08:57:32.665Z,57.83
2018-07-14T09:00:00.399Z,57.98
2018-07-14T09:02:32.112Z,57.76
2018-07-14T09:05:00.421Z,57.85
2018-07-14T09:07:29.332Z,57.35
2018-07-14T09:09:57.402Z,57.08
2018-07-14T09:12:27.276Z,56.99
2018-07-14T09:14:56.737Z,56.95
2018-07-14T09:17:25.775Z,57.24
2018-07-14T09:19:53.472Z,56.83
2018-07-14T09:22:22.304Z,57.13
2018-07-14T09:24:52.172Z,56.54
2018-07-14T09:27:20.712Z,56.48
2018-07-14T09:29:51.254Z,56.41
2018-07-14T09:32:19.498Z,56.72
2018-07-14T09:34:50.208Z,56.10
2018-07-14T09:37:19.491Z,56.13
2018-07-14T09:39:47.543Z,55.83
2018-07-14T09:42:17.586Z,55.59
2018-07-14T09:44:46.255Z,55.72
2018-07-14T09:47:14.412Z,55.96
2018-07-14T09:49:44.664Z,55.91
2018-07-14T09:52:13.183Z,55.27
2018-07-14T09:54:42.303Z,55.06
2018-07-14T09:57:10.058Z,55.04
2018-07-14T10:41:40.783Z,53.25
2018-07-14T10:44:09.485Z,52.64
2018-07-14T10:46:37.624Z,52.58
2018-07-14T10:49:05.340Z,52.92
2018-07-14T10:51:34.048Z,52.57
2018-07-14T10:54:02.034Z,51.97
2018-07-14T10:56:32.708Z,52.15
2018-07-14T10:59:01.515Z,51.99
2018-07-14T11:01:31.372Z,51.29
2018-07-14T11:04:01.556Z,51.39
2018-07-14T11:06:29.258Z,51.80
2018-07-14T11:08:57.368Z,51.64
2018-07-14T11:11:25.729Z,51.15
2018-07-14T11:13:53.426Z,50.77
2018-07-14T11:16:22.610Z,51.38
2018-07-14T11:18:51.225Z,50.71
2018-07-14T11:21:19.382Z,50.50
2018-07-14T11:23:47.289Z,50.92
2018-07-14T11:26:14.909Z,50.94
2018-07-14T11:28:43.081Z,50.94
2018-07-14T11:31:11.495Z,50.62
2018-07-14T11:33:39.247Z,50.71
2018-07-14T11:36:08.255Z,50.14
2018-07-14T11:38:35.994Z,49.99
2018-07-14T11:41:03.734Z,50.29
2018-07-14T11:43:32.339Z,50.04
2018-07-14T11:46:04.051Z,49.85
2018-07-14T11:48:31.753Z,49.43
2018-07-14T11:50:59.750Z,49.54
2018-07-14T11:53:27.439Z,49.32
2018-07-14T11:55:55.147Z,49.22
2018-07-14T11:58:23.170Z,49.61
2018-07-14T12:00:50.917Z,49.06
2018-07-14T12:03:18.635Z,49.15
2018-07-14T12:05:47.804Z,49.15
2018-07-14T12:08:15.533Z,48.48
2018-07-14T12:10:49.593Z,48.96
2018-07-14T12:13:18.622Z,48.23
2018-07-14T12:15:47.184Z,48.72
2018-07-14T12:18:15.740Z,48.60
2018-07-14T12:20:44.288Z,48.70
2018-07-14T12:23:13.339Z,47.90
2018-07-14T12:25:41.683Z,47.53
2018-07-14T12:28:09.752Z,48.07
2018-07-14T12:30:37.500Z,47.47
2018-07-14T12:33:06.882Z,47.67
2018-07-14T12:35:36.319Z,48.11
2018-07-14T12:38:05.105Z,47.85
2018-07-14T12:40:34.290Z,48.08
2018-07-14T12:43:02.349Z,47.68
2018-07-14T12:45:30.097Z,47.70
2018-07-14T12:47:57.835Z,47.31
2018-07-14T12:50:26.322Z,47.28
2018-07-14T12:52:54.049Z,47.50
2018-07-14T12:55:21.726Z,47.61
2018-07-14T12:57:50.650Z,47.99
2018-07-14T13:00:18.352Z,46.79
2018-07-14T13:02:46.768Z,47.15
2018-07-14T13:05:14.791Z,46.36
2018-07-14T13:07:43.145Z,45.90
2018-07-14T13:10:12.297Z,45.94
2018-07-14T13:12:40.297Z,45.54
2018-07-14T13:15:09.174Z,45.53
2018-07-14T13:17:36.960Z,46.03
2018-07-14T13:20:06.566Z,45.87
2018-07-14T13:22:34.309Z,45.11
2018-07-14T13:25:03.457Z,45.92
2018-07-14T13:27:31.460Z,45.40
2018-07-14T13:29:59.253Z,45.06
2018-07-14T13:32:29.207Z,45.29
2018-07-14T13:34:58.370Z,45.27
2018-07-14T13:37:26.884Z,44.91
2018-07-14T13:39:54.615Z,44.82
2018-07-14T13:42:27.776Z,44.26
2018-07-14T13:44:58.614Z,44.67
2018-07-14T13:47:26.633Z,43.46
2018-07-14T13:49:54.609Z,43.43
2018-07-14T13:52:25.212Z,44.21
2018-07-14T13:54:53.713Z,43.46
2018-07-14T13:57:21.736Z,43.21
2018-07-14T13:59:53.395Z,43.66
2018-07-14T14:02:24.814Z,43.86
2018-07-14T14:04:56.683Z,43.65
2018-07-14T14:07:24.646Z,42.97
2018-07-14T14:09:53.054Z,43.77
2018-07-14T14:12:22.738Z,43.09
2018-07-14T14:14:52.130Z,42.70
2018-07-14T14:17:19.830Z,42.96
2018-07-14T14:19:48.933Z,42.40
2018-07-14T14:22:16.743Z,42.66
2018-07-14T14:24:46.312Z,42.49
2018-07-14T14:27:15.290Z,42.73
2018-07-14T14:29:43.014Z,42.47
2018-07-14T14:32:11.389Z,41.76
2018-07-14T14:34:39.425Z,41.79
2018-07-14T14:37:07.096Z,41.18
2018-07-14T14:39:35.430Z,40.73
2018-07-14T14:42:03.491Z,41.59
2018-07-14T14:44:31.197Z,41.15
2018-07-14T14:46:58.953Z,41.60
2018-07-14T14:49:27.057Z,41.90
2018-07-14T14:51:54.765Z,42.36
2018-07-14T14:54:23.358Z,41.82
2018-07-14T14:56:51.359Z,41.86
2018-07-14T14:59:19.060Z,41.20
2018-07-14T15:01:47.955Z,41.70
2018-07-14T15:04:16.784Z,41.96
2018-07-14T15:06:44.488Z,41.08
2018-07-14T15:09:12.793Z,41.29
2018-07-14T15:11:42.462Z,41.23
2018-07-14T15:14:11.236Z,41.54
2018-07-14T15:16:38.925Z,40.65
2018-07-14T15:19:06.911Z,41.04
2018-07-14T15:21:34.622Z,41.47
2018-07-14T15:27:20.102Z,41.13
2018-07-14T15:29:47.914Z,40.30
2018-07-14T15:32:15.676Z,40.00
2018-07-14T15:34:44.678Z,40.75
2018-07-14T15:37:13.225Z,41.16
2018-07-14T15:39:41.897Z,41.37
2018-07-14T15:42:11.127Z,41.58
2018-07-14T15:44:38.843Z,41.20
2018-07-14T15:47:07.643Z,41.41
2018-07-14T15:49:37.186Z,40.63
2018-07-14T15:52:08.164Z,40.73
2018-07-14T15:54:35.968Z,40.39
2018-07-14T15:57:06.281Z,40.32
2018-07-14T15:59:33.957Z,40.16
2018-07-14T16:02:01.657Z,40.00
2018-07-14T16:04:29.677Z,40.72
2018-07-14T16:06:57.410Z,40.63
2018-07-14T16:09:28.652Z,40.62
2018-07-14T16:11:56.896Z,39.84
2018-07-14T16:14:26.362Z,40.15
2018-07-14T16:16:54.348Z,40.77
2018-07-14T16:19:22.427Z,40.59
2018-07-14T16:21:50.204Z,40.26
2018-07-14T16:24:18.157Z,40.66
2018-07-14T16:26:46.242Z,39.98
2018-07-14T16:29:14.622Z,40.41
2018-07-14T16:31:42.387Z,39.89
2018-07-14T16:34:12.038Z,39.94
2018-07-14T16:36:39.742Z,40.39
2018-07-14T16:39:07.479Z,40.63
2018-07-14T16:41:35.687Z,39.91
2018-07-14T16:44:05.312Z,40.55
2018-07-14T16:46:33.259Z,39.55
2018-07-14T16:49:01.753Z,40.30
2018-07-14T16:51:29.486Z,40.26
2018-07-14T16:53:59.207Z,40.63
2018-07-14T16:56:31.781Z,40.69
2018-07-14T16:59:00.067Z,40.14
2018-07-14T17:01:28.556Z,40.71
2018-07-14T17:03:56.713Z,40.51
2018-07-14T17:06:27.659Z,39.91
2018-07-14T17:08:55.464Z,40.36
2018-07-14T17:11:23.559Z,39.76
2018-07-14T17:13:52.523Z,40.35
2018-07-14T17:16:24.005Z,39.60
2018-07-14T17:18:52.455Z,40.28
2018-07-14T17:21:20.171Z,39.53
2018-07-14T17:23:47.909Z,39.30
2018-07-14T17:26:16.351Z,39.23
2018-07-14T17:28:45.085Z,39.71
2018-07-14T17:31:12.991Z,39.53
2018-07-14T17:33:41.102Z,39.45
2018-07-14T17:36:14.868Z,39.97
2018-07-14T17:38:42.976Z,39.72
2018-07-14T17:43:43.669Z,40.08
2018-07-14T17:46:12.491Z,39.71
2018-07-14T17:48:40.382Z,40.11
2018-07-14T17:51:08.399Z,39.46
2018-07-14T17:53:38.009Z,40.31
2018-07-14T17:56:05.909Z,40.60
2018-07-14T17:58:35.558Z,39.90
2018-07-14T18:01:05.083Z,39.62
2018-07-14T18:03:35.219Z,39.75
2018-07-14T18:06:02.998Z,39.58
2018-07-14T18:08:32.145Z,39.72
2018-07-14T18:11:01.404Z,39.88
2018-07-14T18:13:29.306Z,39.68
2018-07-14T18:15:57.397Z,40.67
2018-07-14T18:18:25.099Z,40.45
2018-07-14T18:20:54.197Z,40.12
2018-07-14T18:23:22.436Z,40.53
2018-07-14T18:25:50.809Z,41.05
2018-07-14T18:28:18.600Z,40.60
2018-07-14T18:30:51.250Z,40.81
2018-07-14T18:33:22.982Z,40.95
2018-07-14T18:35:55.540Z,40.98
2018-07-14T18:38:24.393Z,41.84
2018-07-14T18:40:52.393Z,41.90
2018-07-14T18:43:20.737Z,42.20
2018-07-14T18:45:50.513Z,42.35
2018-07-14T18:48:25.481Z,42.28
2018-07-14T18:50:54.634Z,42.07
2018-07-14T18:53:24.550Z,42.94
2018-07-14T18:55:53.635Z,42.94
2018-07-14T18:58:25.649Z,43.22
2018-07-14T19:00:53.768Z,42.71
2018-07-14T19:03:24.810Z,43.27
2018-07-14T19:05:54.303Z,43.49
2018-07-14T19:08:27.586Z,43.26
2018-07-14T19:10:56.150Z,43.29
2018-07-14T19:13:24.183Z,43.66
2018-07-14T19:15:56.715Z,43.52
2018-07-14T19:18:24.959Z,43.55
2018-07-14T19:20:52.945Z,43.53
2018-07-14T19:23:21.223Z,43.63
2018-07-14T19:25:50.477Z,44.30
2018-07-14T19:28:18.578Z,43.86
2018-07-14T19:30:51.534Z,44.41
2018-07-14T19:33:21.914Z,44.03
2018-07-14T19:35:49.778Z,44.18
2018-07-14T19:38:19.777Z,44.31
2018-07-14T19:40:47.940Z,44.93
2018-07-14T19:43:17.134Z,44.45
2018-07-14T19:45:45.332Z,45.06
2018-07-14T19:48:13.914Z,45.32
2018-07-14T19:50:42.609Z,45.39
2018-07-14T19:53:13.086Z,45.72
2018-07-14T19:55:42.563Z,45.72
2018-07-14T19:58:10.746Z,45.95
2018-07-14T20:00:39.783Z,46.17
2018-07-14T20:03:07.970Z,45.87
2018-07-14T20:05:36.949Z,46.31
2018-07-14T20:08:07.285Z,46.65
2018-07-14T20:10:36.757Z,46.73
2018-07-14T20:13:09.422Z,46.14
2018-07-14T20:15:39.658Z,46.95
2018-07-14T20:18:08.579Z,46.44
2018-07-14T20:20:39.481Z,46.96
2018-07-14T20:23:07.318Z,47.12
2018-07-14T20:25:37.556Z,47.17
2018-07-14T20:28:07.546Z,47.23
2018-07-14T20:30:35.453Z,47.88
2018-07-14T20:33:03.466Z,47.89
2018-07-14T20:35:32.772Z,48.38
2018-07-14T20:38:16.457Z,48.71
2018-07-14T20:40:45.682Z,48.91
2018-07-14T20:43:14.402Z,48.73
2018-07-14T20:45:42.692Z,49.45
2018-07-14T20:48:11.195Z,49.66
2018-07-14T20:50:41.450Z,49.87
2018-07-14T20:53:09.911Z,49.11
2018-07-14T20:55:37.617Z,49.67
2018-07-14T20:58:08.451Z,50.00
2018-07-14T21:00:38.739Z,50.52
2018-07-14T21:03:10.474Z,50.30
2018-07-14T21:05:40.085Z,50.90
2018-07-14T21:08:10.390Z,51.03
2018-07-14T21:10:39.770Z,50.83
2018-07-14T21:13:08.491Z,51.46
2018-07-14T21:15:36.826Z,51.73
2018-07-14T21:18:05.707Z,51.32
2018-07-14T21:20:33.586Z,51.40
2018-07-14T21:23:01.859Z,51.47
2018-07-14T21:25:29.757Z,51.73
2018-07-14T21:28:02.308Z,52.06
2018-07-14T21:30:31.444Z,51.92
2018-07-14T21:33:01.862Z,51.89
2018-07-14T21:35:30.731Z,52.45
2018-07-14T21:38:03.323Z,52.22
2018-07-14T21:40:31.388Z,52.36
2018-07-14T21:42:59.660Z,52.52
2018-07-14T21:49:59.607Z,53.33
2018-07-14T21:52:27.808Z,53.04
2018-07-14T21:55:00.099Z,53.24
2018-07-14T21:57:29.300Z,53.50
2018-07-14T21:59:58.731Z,53.59
2018-07-14T22:02:27.241Z,53.54
2018-07-14T22:04:56.328Z,53.63
2018-07-14T22:07:25.153Z,54.03
2018-07-14T22:09:53.369Z,53.87
2018-07-14T22:12:21.174Z,54.07
2018-07-14T22:14:50.701Z,53.92
2018-07-14T22:17:21.688Z,53.84
2018-07-14T22:19:51.650Z,54.53
2018-07-14T22:22:20.739Z,54.65
2018-07-14T22:24:53.242Z,54.18
2018-07-14T22:27:22.164Z,54.75
2018-07-14T22:29:54.602Z,54.15
2018-07-14T22:32:22.363Z,54.55
2018-07-14T22:34:53.728Z,54.89
2018-07-14T22:37:22.605Z,54.72
2018-07-14T22:39:50.893Z,55.25
2018-07-14T22:42:19.165Z,55.43
2018-07-14T22:44:47.237Z,54.90
2018-07-14T22:47:14.966Z,55.54
2018-07-14T22:49:42.699Z,55.75
2018-07-14T22:52:14.432Z,55.31
2018-07-14T22:54:44.090Z,55.67
2018-07-14T22:57:12.928Z,55.84
2018-07-14T22:59:40.629Z,55.99
2018-07-14T23:02:09.215Z,55.63
2018-07-14T23:04:37.264Z,56.28
2018-07-14T23:07:04.953Z,56.42
2018-07-14T23:09:33.240Z,56.22
2018-07-14T23:12:02.576Z,56.14
2018-07-14T23:14:30.292Z,56.14
2018-07-14T23:16:57.978Z,56.24
2018-07-14T23:19:27.382Z,56.68
2018-07-14T23:21:55.069Z,56.92
2018-07-14T23:24:22.802Z,56.48
2018-07-14T23:26:51.855Z,56.85
2018-07-14T23:29:19.603Z,56.93
2018-07-14T23:31:47.271Z,56.83
2018-07-14T23:34:18.936Z,57.22
2018-07-14T23:36:47.577Z,56.63
2018-07-14T23:39:17.657Z,56.70
2018-07-14T23:41:45.875Z,57.01
2018-07-14T23:44:14.558Z,57.50
2018-07-14T23:46:42.283Z,57.78
2018-07-14T23:49:10.706Z,57.47
2018-07-14T23:51:39.274Z,57.54
2018-07-14T23:54:10.827Z,57.80
2018-07-14T23:56:38.514Z,57.91
2018-07-14T23:59:09.841Z,57.97
